Time;durP1;ratioP1;P1;durP2;ratioP2;P2;SDS_P1;SDS_P2;PMS_P1;PMS_P2;Temp;Humidity;BMP_temperature;BMP_pressure;BME280_temperature;BME280_humidity;BME280_pressure;Samples;Min_cycle;Max_cycle;Signal;HPM_P1;HPM_P2
2023/01/05 00:01:50;;;;;;;1.47;1.27;;;;;;;11.91;nan;100241.88;6122887;23;20230;-85
2023/01/05 00:04:17;;;;;;;1.48;0.90;;;;;;;11.88;nan;100246.47;6122541;23;20386;-84
2023/01/05 00:06:43;;;;;;;0.70;0.60;;;;;;;11.89;nan;100249.03;6123328;23;20156;-85
2023/01/05 00:09:12;;;;;;;0.70;0.60;;;;;;;11.90;nan;100234.06;6123376;23;20384;-85
2023/01/05 00:22:50;;;;;;;0.70;0.60;;;;;;;11.95;nan;100234.66;6122553;23;20175;-85
2023/01/05 00:25:32;;;;;;;0.80;0.75;;;;;;;11.93;nan;100247.88;6122659;23;20160;-84
2023/01/05 00:27:58;;;;;;;0.80;0.70;;;;;;;11.95;nan;100247.81;6123014;23;20442;-84
2023/01/05 00:30:27;;;;;;;1.13;0.70;;;;;;;12.01;nan;100249.22;6096589;23;20191;-84
2023/01/05 00:32:53;;;;;;;1.35;0.60;;;;;;;11.99;nan;100270.41;6122628;23;20476;-85
2023/01/05 00:35:19;;;;;;;0.60;0.60;;;;;;;12.01;nan;100267.66;6096621;23;20156;-84
2023/01/05 00:37:45;;;;;;;0.90;0.70;;;;;;;12.02;nan;100270.22;6099917;23;20195;-84
2023/01/05 00:40:15;;;;;;;0.70;0.60;;;;;;;12.04;nan;100263.03;6123146;23;20460;-85
2023/01/05 00:42:41;;;;;;;0.93;0.70;;;;;;;12.04;nan;100276.22;6121977;23;20207;-84
2023/01/05 00:45:10;;;;;;;1.20;1.07;;;;;;;12.05;nan;100272.66;6096345;23;20153;-85
2023/01/05 00:47:35;;;;;;;1.42;0.70;;;;;;;12.05;nan;100280.56;6122355;23;20167;-85
2023/01/05 00:50:01;;;;;;;0.70;0.60;;;;;;;12.05;nan;100280.56;6096192;23;20160;-85
2023/01/05 00:52:27;;;;;;;0.83;0.60;;;;;;;12.06;nan;100269.06;6096723;23;20215;-86
2023/01/05 00:54:52;;;;;;;0.60;0.60;;;;;;;12.08;nan;100266.38;6096745;23;20510;-86
2023/01/05 00:57:17;;;;;;;0.70;0.63;;;;;;;12.07;nan;100265.53;6122091;23;20551;-84
2023/01/05 00:59:43;;;;;;;0.97;0.70;;;;;;;12.10;nan;100267.97;6096824;23;20166;-85
2023/01/05 01:02:09;;;;;;;1.07;0.60;;;;;;;12.08;nan;100259.31;6122475;23;20623;-85
2023/01/05 01:04:35;;;;;;;0.90;0.63;;;;;;;12.08;nan;100250.56;6096566;23;20231;-85
2023/01/05 01:07:03;;;;;;;0.98;0.70;;;;;;;12.10;nan;100251.34;6121816;23;20183;-86
2023/01/05 01:09:28;;;;;;;3.33;0.80;;;;;;;12.09;nan;100258.34;6122589;23;20158;-84
2023/01/05 01:11:54;;;;;;;0.70;0.53;;;;;;;12.09;nan;100262.78;6096838;23;20274;-85
2023/01/05 01:14:19;;;;;;;0.70;0.70;;;;;;;12.08;nan;100258.47;6096391;23;20531;-84
2023/01/05 01:16:47;;;;;;;0.90;0.57;;;;;;;12.07;nan;100255.00;6096578;23;20167;-84
2023/01/05 01:19:19;;;;;;;1.43;0.60;;;;;;;12.05;nan;100256.88;6097010;23;20159;-85
2023/01/05 01:21:44;;;;;;;0.60;0.50;;;;;;;12.05;nan;100258.66;6096441;23;20191;-85
2023/01/05 01:24:19;;;;;;;1.00;0.70;;;;;;;12.04;nan;100256.94;6123076;23;20144;-86
2023/01/05 01:26:44;;;;;;;0.70;0.70;;;;;;;12.03;nan;100250.00;6122227;23;20179;-85
2023/01/05 01:29:10;;;;;;;0.97;0.63;;;;;;;12.01;nan;100263.22;6096561;23;20159;-85
2023/01/05 01:31:36;;;;;;;0.70;0.70;;;;;;;11.97;nan;100259.09;6096585;23;20974;-85
2023/01/05 01:34:02;;;;;;;2.57;0.60;;;;;;;11.97;nan;100255.63;6123795;23;20214;-85
2023/01/05 01:36:28;;;;;;;1.10;0.80;;;;;;;11.97;nan;100245.09;6099013;23;20167;-85
2023/01/05 01:38:53;;;;;;;0.73;0.60;;;;;;;11.97;nan;100240.69;6098287;23;20160;-86
2023/01/05 01:41:19;;;;;;;0.60;0.60;;;;;;;11.92;nan;100253.25;6098158;23;20189;-85
2023/01/05 01:43:47;;;;;;;0.80;0.70;;;;;;;11.90;nan;100249.84;6098403;23;20239;-85
2023/01/05 01:46:15;;;;;;;0.88;0.60;;;;;;;11.90;nan;100249.84;6124210;23;20163;-86
2023/01/05 01:49:10;;;;;;;0.80;0.50;;;;;;;11.89;nan;100253.44;6123787;23;20522;-84
2023/01/05 01:51:40;;;;;;;0.60;0.50;;;;;;;11.92;nan;100250.63;6108315;23;20643;-85
2023/01/05 01:54:08;;;;;;;0.60;0.50;;;;;;;11.94;nan;100261.91;6095449;23;20212;-85
2023/01/05 01:56:42;;;;;;;0.60;0.50;;;;;;;11.95;nan;100264.44;6096080;23;20192;-85
2023/01/05 01:59:10;;;;;;;1.13;0.85;;;;;;;11.90;nan;100260.38;6094514;23;20188;-85
2023/01/05 02:01:35;;;;;;;0.80;0.60;;;;;;;11.91;nan;100254.22;6122148;23;20156;-85
2023/01/05 02:04:02;;;;;;;0.70;0.70;;;;;;;11.94;nan;100254.03;6094954;23;20226;-85
2023/01/05 02:06:28;;;;;;;0.65;0.60;;;;;;;11.93;nan;100258.41;6095603;23;20664;-85
2023/01/05 02:08:54;;;;;;;0.70;0.60;;;;;;;11.95;nan;100240.75;6094736;23;20219;-86
2023/01/05 02:11:22;;;;;;;0.70;0.60;;;;;;;11.97;nan;100242.47;6123156;23;20627;-85
2023/01/05 02:14:16;;;;;;;0.88;0.63;;;;;;;11.95;nan;100232.84;6095887;23;20192;-86
2023/01/05 02:16:50;;;;;;;0.70;0.52;;;;;;;11.93;nan;100242.63;6095526;23;20164;-85
2023/01/05 02:19:22;;;;;;;0.60;0.50;;;;;;;11.93;nan;100239.16;6095408;23;20159;-85
2023/01/05 02:21:53;;;;;;;1.10;0.73;;;;;;;11.94;nan;100239.06;6001334;23;20208;-85
2023/01/05 02:24:36;;;;;;;0.70;0.60;;;;;;;11.95;nan;100237.28;6062258;23;20177;-85
2023/01/05 02:27:26;;;;;;;0.60;0.50;;;;;;;11.95;nan;100229.38;6058091;23;20253;-84
2023/01/05 02:30:09;;;;;;;0.70;0.55;;;;;;;11.90;nan;100218.28;6039447;23;20177;-85
2023/01/05 02:32:41;;;;;;;0.60;0.50;;;;;;;11.87;nan;100223.72;6038060;23;20158;-85
2023/01/05 02:35:27;;;;;;;0.70;0.50;;;;;;;11.88;nan;100214.88;6062851;23;20181;-85
2023/01/05 02:38:21;;;;;;;1.45;0.55;;;;;;;11.85;nan;100222.94;6038894;23;20185;-85
2023/01/05 02:40:56;;;;;;;0.70;0.60;;;;;;;11.86;nan;100230.78;6084193;23;20181;-85
2023/01/05 02:43:21;;;;;;;0.70;0.50;;;;;;;11.87;nan;100227.19;6085007;23;20164;-84
2023/01/05 02:45:48;;;;;;;0.60;0.50;;;;;;;11.88;nan;100222.78;6064318;23;20158;-85
2023/01/05 02:48:14;;;;;;;0.90;0.65;;;;;;;11.92;nan;100221.66;6061367;23;20166;-85
2023/01/05 02:50:45;;;;;;;0.83;0.60;;;;;;;11.96;nan;100223.16;6037750;23;20688;-85
2023/01/05 02:53:46;;;;;;;0.60;0.50;;;;;;;11.93;nan;100215.44;6035839;23;20170;-86
2023/01/05 02:56:20;;;;;;;0.70;0.60;;;;;;;11.88;nan;100214.88;6006390;23;20332;-85
2023/01/05 02:58:56;;;;;;;0.90;0.60;;;;;;;11.91;nan;100212.09;6062245;23;20168;-85
2023/01/05 03:01:26;;;;;;;0.60;0.50;;;;;;;11.92;nan;100213.78;6065409;23;20720;-84
2023/01/05 03:03:59;;;;;;;1.00;0.60;;;;;;;11.92;nan;100208.50;6035759;23;20232;-85
2023/01/05 03:06:32;;;;;;;0.70;0.50;;;;;;;11.92;nan;100205.88;6037450;23;20169;-85
2023/01/05 03:09:01;;;;;;;0.60;0.50;;;;;;;11.90;nan;100208.59;6085237;23;20165;-84
2023/01/05 03:14:46;;;;;;;0.70;0.50;;;;;;;11.91;nan;100220.81;6060204;23;20208;-85
2023/01/05 03:17:16;;;;;;;1.90;0.57;;;;;;;11.92;nan;100216.41;6036379;23;20676;-85
2023/01/05 03:19:47;;;;;;;0.60;0.50;;;;;;;11.96;nan;100215.25;6037052;23;20182;-85
2023/01/05 03:36:45;;;;;;;0.65;0.57;;;;;;;11.94;nan;100199.56;6061371;23;20680;-84
2023/01/05 03:39:13;;;;;;;0.70;0.60;;;;;;;11.94;nan;100211.91;6037983;23;20160;-86
2023/01/05 03:41:38;;;;;;;0.60;0.50;;;;;;;11.96;nan;100220.53;6036998;23;20188;-84
2023/01/05 03:44:05;;;;;;;0.60;0.60;;;;;;;11.91;nan;100212.94;6037364;23;20161;-84
2023/01/05 03:46:34;;;;;;;0.70;0.50;;;;;;;11.92;nan;100214.59;6036387;23;20161;-85
2023/01/05 03:49:00;;;;;;;0.60;0.50;;;;;;;11.93;nan;100210.19;6061085;23;20204;-84
2023/01/05 03:51:26;;;;;;;0.80;0.70;;;;;;;11.92;nan;100219.03;6038274;23;20188;-84
2023/01/05 03:53:51;;;;;;;0.60;0.50;;;;;;;11.91;nan;100209.44;6062140;23;20185;-85
2023/01/05 03:56:17;;;;;;;0.70;0.50;;;;;;;11.92;nan;100211.13;6062952;23;20179;-84
2023/01/05 03:58:42;;;;;;;0.70;0.60;;;;;;;11.88;nan;100199.09;6037744;23;20484;-84
2023/01/05 04:01:07;;;;;;;0.70;0.60;;;;;;;11.86;nan;100200.97;6063256;23;20173;-84
2023/01/05 04:03:33;;;;;;;0.90;0.57;;;;;;;11.85;nan;100197.44;6085036;23;20153;-85
2023/01/05 04:06:02;;;;;;;0.60;0.40;;;;;;;11.84;nan;100193.13;6061811;23;20607;-84
2023/01/05 04:08:29;;;;;;;0.60;0.50;;;;;;;11.81;nan;100187.22;6040020;23;20185;-85
2023/01/05 04:10:55;;;;;;;0.70;0.60;;;;;;;11.85;nan;100188.69;6035771;23;20185;-85
2023/01/05 04:13:22;;;;;;;0.60;0.57;;;;;;;11.86;nan;100195.72;6035306;23;20600;-84
2023/01/05 04:15:48;;;;;;;0.60;0.50;;;;;;;11.82;nan;100189.72;6035536;23;20169;-85
2023/01/05 04:18:14;;;;;;;0.63;0.50;;;;;;;11.85;nan;100193.97;6062484;23;20153;-85
2023/01/05 04:20:39;;;;;;;0.60;0.50;;;;;;;11.85;nan;100186.06;6038621;23;20193;-84
2023/01/05 04:23:06;;;;;;;0.60;0.50;;;;;;;11.84;nan;100192.28;6086177;23;20252;-85
2023/01/05 04:25:33;;;;;;;1.17;0.60;;;;;;;11.84;nan;100200.19;6035505;23;20164;-84
2023/01/05 04:28:09;;;;;;;0.80;0.60;;;;;;;11.84;nan;100200.19;6062760;23;20224;-84
2023/01/05 04:30:36;;;;;;;1.35;0.70;;;;;;;11.86;nan;100198.34;6037786;23;20743;-85
2023/01/05 04:33:02;;;;;;;2.67;1.20;;;;;;;11.85;nan;100200.06;6034963;23;20164;-85
2023/01/05 04:35:28;;;;;;;0.80;0.70;;;;;;;11.85;nan;100191.34;6036395;23;20497;-85
2023/01/05 04:37:54;;;;;;;0.80;0.60;;;;;;;11.85;nan;100204.50;6037224;23;20164;-86
2023/01/05 04:40:19;;;;;;;0.80;0.70;;;;;;;11.84;nan;100198.41;6060480;23;20218;-85
2023/01/05 04:42:51;;;;;;;2.40;0.55;;;;;;;11.84;nan;100195.75;6062777;23;20393;-85
2023/01/05 04:45:17;;;;;;;0.60;0.60;;;;;;;11.85;nan;100193.97;6036275;23;20153;-84
2023/01/05 04:47:43;;;;;;;0.70;0.60;;;;;;;11.84;nan;100187.03;6036526;23;20225;-85
2023/01/05 04:50:11;;;;;;;0.60;0.50;;;;;;;11.83;nan;100185.34;6084728;23;20410;-84
2023/01/05 04:52:37;;;;;;;0.80;0.60;;;;;;;11.85;nan;100193.97;6082956;23;20195;-84
2023/01/05 04:55:03;;;;;;;0.60;0.50;;;;;;;11.85;nan;100184.28;6034908;23;20437;-85
2023/01/05 04:57:29;;;;;;;1.02;0.80;;;;;;;11.84;nan;100187.03;6060334;23;20193;-84
2023/01/05 04:59:56;;;;;;;1.02;0.65;;;;;;;11.88;nan;100185.91;6034935;23;20672;-84
2023/01/05 05:02:23;;;;;;;0.70;0.60;;;;;;;11.86;nan;100191.28;6038624;23;20639;-85
2023/01/05 05:04:49;;;;;;;2.13;1.08;;;;;;;11.87;nan;100189.50;6061902;23;20164;-85
2023/01/05 05:07:15;;;;;;;2.83;0.70;;;;;;;11.84;nan;100198.41;6084932;23;20165;-84
2023/01/05 05:09:40;;;;;;;1.37;0.70;;;;;;;11.82;nan;100200.25;6062236;23;20888;-85
2023/01/05 05:12:06;;;;;;;0.60;0.50;;;;;;;11.86;nan;100203.63;6034787;23;20173;-85
2023/01/05 05:14:34;;;;;;;0.80;0.60;;;;;;;11.85;nan;100205.34;6083185;23;20192;-85
2023/01/05 05:16:59;;;;;;;1.00;0.60;;;;;;;11.87;nan;100214.03;6060345;23;20350;-84
2023/01/05 05:19:26;;;;;;;1.98;0.70;;;;;;;11.89;nan;100209.53;6061899;23;20154;-85
2023/01/05 05:21:52;;;;;;;0.90;0.80;;;;;;;11.90;nan;100218.28;6035244;23;20185;-85
2023/01/05 05:24:17;;;;;;;0.70;0.60;;;;;;;11.89;nan;100213.97;6060615;23;20605;-84
2023/01/05 05:26:44;;;;;;;0.60;0.50;;;;;;;11.91;nan;100214.72;6060955;23;20697;-84
2023/01/05 05:29:10;;;;;;;0.70;0.60;;;;;;;11.94;nan;100218.00;6060791;23;20154;-84
2023/01/05 05:31:35;;;;;;;0.60;0.60;;;;;;;11.99;nan;100230.91;6062887;23;20157;-85
2023/01/05 05:34:01;;;;;;;0.60;0.50;;;;;;;11.98;nan;100221.28;6064681;23;20180;-84
2023/01/05 05:36:26;;;;;;;1.20;0.50;;;;;;;12.00;nan;100237.00;6065353;23;20157;-85
2023/01/05 05:38:52;;;;;;;0.97;0.67;;;;;;;12.01;nan;100234.28;6065540;23;20537;-84
2023/01/05 05:41:17;;;;;;;0.80;0.57;;;;;;;12.02;nan;100230.72;6063783;23;20173;-84
2023/01/05 05:43:42;;;;;;;1.13;0.77;;;;;;;12.03;nan;100232.41;6062214;23;20153;-84
2023/01/05 05:46:08;;;;;;;0.60;0.50;;;;;;;11.99;nan;100224.75;6061836;23;20164;-84
2023/01/05 05:48:33;;;;;;;0.70;0.50;;;;;;;12.01;nan;100233.44;6061849;23;20157;-84
2023/01/05 05:50:59;;;;;;;0.73;0.60;;;;;;;12.03;nan;100244.72;6061172;23;20205;-84
2023/01/05 05:53:24;;;;;;;0.97;0.80;;;;;;;12.06;nan;100241.91;6061706;23;20224;-84
2023/01/05 05:55:50;;;;;;;1.00;0.70;;;;;;;12.05;nan;100246.34;6061443;23;20162;-83
2023/01/05 05:58:17;;;;;;;0.63;0.60;;;;;;;12.04;nan;100241.13;6060230;23;20189;-84
2023/01/05 06:00:42;;;;;;;0.98;0.65;;;;;;;12.01;nan;100236.06;6062530;23;20188;-84
2023/01/05 06:03:08;;;;;;;0.70;0.67;;;;;;;12.04;nan;100243.78;6063452;23;20157;-84
2023/01/05 06:05:33;;;;;;;0.90;0.60;;;;;;;12.04;nan;100244.63;6062456;23;20276;-84
2023/01/05 06:07:59;;;;;;;0.60;0.50;;;;;;;12.05;nan;100250.75;6061372;23;20153;-84
2023/01/05 06:10:24;;;;;;;0.87;0.60;;;;;;;12.04;nan;100249.03;6060972;23;20632;-84
2023/01/05 06:12:52;;;;;;;0.60;0.60;;;;;;;12.06;nan;100242.75;6062570;23;20529;-84
2023/01/05 06:15:22;;;;;;;0.80;0.70;;;;;;;12.07;nan;100244.47;6060273;23;20189;-84
2023/01/05 06:17:47;;;;;;;1.05;0.60;;;;;;;12.06;nan;100240.13;6060551;23;20162;-84
2023/01/05 06:20:15;;;;;;;0.90;0.70;;;;;;;12.05;nan;100243.69;6063454;23;20244;-84
2023/01/05 06:22:41;;;;;;;0.90;0.60;;;;;;;12.09;nan;100241.72;6062861;23;20696;-84
2023/01/05 06:25:07;;;;;;;0.70;0.70;;;;;;;12.10;nan;100246.06;6062086;23;20161;-84
2023/01/05 06:27:32;;;;;;;1.10;1.00;;;;;;;12.11;nan;100247.75;6063274;23;20611;-84
2023/01/05 06:29:57;;;;;;;1.20;0.97;;;;;;;12.08;nan;100256.69;6063503;23;20463;-84
2023/01/05 06:32:23;;;;;;;1.10;0.83;;;;;;;12.08;nan;100264.56;6062306;23;20199;-84
2023/01/05 06:34:48;;;;;;;0.70;0.60;;;;;;;12.08;nan;100254.03;6064894;23;20375;-84
2023/01/05 06:37:14;;;;;;;0.80;0.50;;;;;;;12.13;nan;100266.94;6061736;23;20154;-84
2023/01/05 06:39:39;;;;;;;0.60;0.50;;;;;;;12.12;nan;100268.75;6063191;23;20802;-84
2023/01/05 06:42:04;;;;;;;0.60;0.50;;;;;;;12.11;nan;100269.66;6061922;23;20184;-84
2023/01/05 06:44:30;;;;;;;0.60;0.60;;;;;;;12.08;nan;100264.56;6062632;23;20153;-84
2023/01/05 06:46:55;;;;;;;0.83;0.70;;;;;;;12.07;nan;100270.78;6037861;23;20238;-84
2023/01/05 06:49:20;;;;;;;0.80;0.70;;;;;;;12.12;nan;100265.22;6061020;23;20540;-84
2023/01/05 06:51:46;;;;;;;0.60;0.60;;;;;;;12.09;nan;100255.72;6062755;23;20177;-84
2023/01/05 06:54:11;;;;;;;0.70;0.70;;;;;;;12.13;nan;100269.59;6063833;23;20188;-84
2023/01/05 06:56:37;;;;;;;0.90;0.70;;;;;;;12.14;nan;100269.47;6062911;23;20402;-84
2023/01/05 06:59:02;;;;;;;0.70;0.70;;;;;;;12.10;nan;100267.13;6064714;23;20166;-84
2023/01/05 07:01:27;;;;;;;1.00;0.90;;;;;;;12.13;nan;100266.94;6062112;23;20160;-84
2023/01/05 07:03:53;;;;;;;1.03;0.80;;;;;;;12.11;nan;100255.66;6062754;23;20184;-84
2023/01/05 07:06:18;;;;;;;1.20;0.90;;;;;;;12.14;nan;100268.63;6064132;23;20684;-85
2023/01/05 07:08:44;;;;;;;2.63;1.30;;;;;;;12.13;nan;100267.78;6062339;23;20474;-84
2023/01/05 07:11:09;;;;;;;2.00;1.00;;;;;;;12.11;nan;100269.66;6062808;23;20586;-84
2023/01/05 07:13:35;;;;;;;0.80;0.70;;;;;;;12.12;nan;100266.09;6061973;23;20212;-84
2023/01/05 07:16:00;;;;;;;0.90;0.80;;;;;;;12.09;nan;100274.16;6062562;23;20252;-84
2023/01/05 07:18:26;;;;;;;1.27;0.80;;;;;;;12.14;nan;100284.44;6061550;23;20397;-84
2023/01/05 07:20:51;;;;;;;1.60;1.20;;;;;;;12.13;nan;100291.50;6060485;23;20173;-84
2023/01/05 07:23:16;;;;;;;1.97;1.37;;;;;;;12.12;nan;100281.91;6061479;23;20165;-84
2023/01/05 07:25:42;;;;;;;1.00;0.90;;;;;;;12.13;nan;100282.75;6062485;23;20272;-84
2023/01/05 07:28:07;;;;;;;1.33;0.80;;;;;;;12.18;nan;100285.97;6062218;23;20184;-84
2023/01/05 07:30:33;;;;;;;2.00;1.30;;;;;;;12.18;nan;100302.59;6061790;23;20174;-84
2023/01/05 07:32:59;;;;;;;1.70;1.53;;;;;;;12.20;nan;100299.84;6061033;23;20212;-84
2023/01/05 07:35:25;;;;;;;3.10;1.05;;;;;;;12.18;nan;100302.59;6061829;23;20185;-84
2023/01/05 07:37:50;;;;;;;2.33;1.00;;;;;;;12.18;nan;100297.34;6062085;23;20192;-84
2023/01/05 07:40:15;;;;;;;1.93;1.00;;;;;;;12.17;nan;100300.88;6061922;23;20641;-84
2023/01/05 07:42:41;;;;;;;1.33;0.90;;;;;;;12.20;nan;100299.84;6060711;23;20185;-84
2023/01/05 07:45:08;;;;;;;1.00;0.90;;;;;;;12.17;nan;100302.69;6037830;23;20173;-84
2023/01/05 07:47:34;;;;;;;0.90;0.90;;;;;;;12.20;nan;100299.03;6063164;23;20173;-84
2023/01/05 07:49:59;;;;;;;5.13;0.90;;;;;;;12.22;nan;100302.41;6061482;23;20157;-84
2023/01/05 07:52:27;;;;;;;1.10;0.83;;;;;;;12.24;nan;100308.44;6061630;23;20181;-84
2023/01/05 07:54:53;;;;;;;1.23;1.10;;;;;;;12.25;nan;100310.13;6061831;23;20205;-84
2023/01/05 07:57:27;;;;;;;0.77;0.77;;;;;;;12.28;nan;100308.16;6062146;23;20575;-84
2023/01/05 07:59:52;;;;;;;1.00;0.90;;;;;;;12.29;nan;100320.41;6062429;23;20225;-84
2023/01/05 08:02:19;;;;;;;0.80;0.80;;;;;;;12.31;nan;100318.53;6061351;23;20411;-84
2023/01/05 08:04:45;;;;;;;3.53;1.00;;;;;;;12.31;nan;100329.06;6061638;23;20187;-84
2023/01/05 08:07:11;;;;;;;1.10;0.90;;;;;;;12.31;nan;100334.34;6061852;23;20212;-84
2023/01/05 08:12:21;;;;;;;1.38;0.85;;;;;;;12.35;nan;100343.75;6061160;23;20181;-84
2023/01/05 08:14:47;;;;;;;1.23;0.80;;;;;;;12.36;nan;100342.78;6061739;23;20215;-84
2023/01/05 08:17:12;;;;;;;1.27;1.10;;;;;;;12.36;nan;100348.06;6061524;23;20161;-84
2023/01/05 08:19:38;;;;;;;1.43;1.00;;;;;;;12.40;nan;100348.75;6062063;23;20161;-84
2023/01/05 08:22:03;;;;;;;2.07;1.03;;;;;;;12.40;nan;100364.56;6061288;23;20177;-84
2023/01/05 08:24:28;;;;;;;2.20;1.03;;;;;;;12.41;nan;100350.44;6061140;23;20163;-84
2023/01/05 08:26:54;;;;;;;1.57;1.00;;;;;;;12.42;nan;100356.53;6061421;23;20160;-84
2023/01/05 08:29:20;;;;;;;2.03;1.20;;;;;;;12.46;nan;100373.88;6072182;23;20494;-84
2023/01/05 08:31:45;;;;;;;1.80;1.30;;;;;;;12.44;nan;100373.13;6092698;23;20200;-84
2023/01/05 08:34:11;;;;;;;2.13;1.20;;;;;;;12.46;nan;100379.16;6119608;23;20520;-84
2023/01/05 08:36:36;;;;;;;1.98;1.00;;;;;;;12.46;nan;100379.16;6119175;23;20170;-84
2023/01/05 08:39:02;;;;;;;1.27;0.90;;;;;;;12.43;nan;100380.19;6119082;23;20160;-84
2023/01/05 08:41:34;;;;;;;0.85;0.85;;;;;;;12.40;nan;100385.63;6119083;23;20635;-84
2023/01/05 08:44:04;;;;;;;1.30;1.20;;;;;;;12.38;nan;100388.34;6119424;23;20152;-84
2023/01/05 08:46:32;;;;;;;1.30;0.90;;;;;;;12.38;nan;100390.97;6119312;23;20621;-84
2023/01/05 08:48:59;;;;;;;1.27;1.00;;;;;;;12.37;nan;100394.56;6119064;23;20160;-84
2023/01/05 08:51:25;;;;;;;1.38;0.80;;;;;;;12.38;nan;100401.50;6119006;23;20176;-84
2023/01/05 08:53:50;;;;;;;1.30;0.90;;;;;;;12.39;nan;100405.00;6070222;23;20303;-83
2023/01/05 08:56:16;;;;;;;3.13;1.17;;;;;;;12.42;nan;100403.97;6097389;23;20867;-84
2023/01/05 08:58:42;;;;;;;1.30;0.70;;;;;;;12.40;nan;100402.28;6118618;23;20697;-84
2023/01/05 09:01:08;;;;;;;1.23;0.90;;;;;;;12.42;nan;100403.97;6118664;23;20179;-84
2023/01/05 09:03:34;;;;;;;4.20;2.83;;;;;;;12.50;nan;100407.88;6119014;23;20387;-84
2023/01/05 09:06:02;;;;;;;4.07;2.00;;;;;;;12.57;nan;100403.91;6095702;23;20160;-84
2023/01/05 09:08:31;;;;;;;13.40;8.10;;;;;;;12.63;nan;100400.06;6119211;23;20184;-84
2023/01/05 09:11:16;;;;;;;11.13;7.53;;;;;;;12.72;nan;100402.19;6120626;23;20184;-84
2023/01/05 09:13:49;;;;;;;9.80;4.75;;;;;;;12.82;nan;100394.53;6119777;23;20188;-84
2023/01/05 09:16:17;;;;;;;2.65;2.20;;;;;;;12.94;nan;100401.72;6120986;23;20156;-84
2023/01/05 09:18:44;;;;;;;1.40;1.20;;;;;;;13.00;nan;100397.84;6092647;23;20431;-84
2023/01/05 09:21:10;;;;;;;1.10;1.10;;;;;;;13.00;nan;100403.97;6119296;23;20192;-84
2023/01/05 09:23:36;;;;;;;1.38;1.00;;;;;;;13.00;nan;100411.88;6119051;23;20210;-84
2023/01/05 09:26:04;;;;;;;1.90;0.85;;;;;;;13.02;nan;100415.28;6118336;23;20483;-84
2023/01/05 09:28:30;;;;;;;1.15;0.90;;;;;;;13.02;nan;100415.28;6118227;23;20152;-84
2023/01/05 09:30:55;;;;;;;1.00;0.90;;;;;;;13.05;nan;100409.81;6119158;23;20552;-84
2023/01/05 09:33:20;;;;;;;1.10;1.00;;;;;;;13.06;nan;100416.78;6120886;23;20246;-84
2023/01/05 09:35:55;;;;;;;2.80;1.40;;;;;;;13.12;nan;100415.56;6119095;23;20152;-84
2023/01/05 09:38:22;;;;;;;1.70;1.40;;;;;;;13.22;nan;100421.13;6118847;23;20155;-84
2023/01/05 09:40:50;;;;;;;1.60;1.30;;;;;;;13.34;nan;100417.78;6122173;23;20182;-84
2023/01/05 09:43:23;;;;;;;2.17;1.45;;;;;;;13.42;nan;100406.72;6122627;23;20659;-84
2023/01/05 09:45:49;;;;;;;2.00;1.10;;;;;;;13.49;nan;100411.50;6120406;23;20167;-85
2023/01/05 09:48:17;;;;;;;1.43;1.30;;;;;;;13.62;nan;100416.03;6121679;23;20179;-85
2023/01/05 09:50:44;;;;;;;1.45;1.35;;;;;;;13.68;nan;100420.91;6122472;23;20824;-85
2023/01/05 09:53:12;;;;;;;2.10;1.30;;;;;;;13.70;nan;100425.16;6121128;23;20156;-85
2023/01/05 09:55:40;;;;;;;2.38;1.40;;;;;;;13.71;nan;100412.78;6120948;23;20659;-88
2023/01/05 09:58:20;;;;;;;2.50;1.10;;;;;;;13.68;nan;100413.00;6124178;23;20199;-85
2023/01/05 10:01:01;;;;;;;1.83;1.02;;;;;;;13.67;nan;100417.44;6089498;23;20268;-85
2023/01/05 10:03:28;;;;;;;1.85;1.30;;;;;;;13.67;nan;100422.72;6091746;23;20227;-87
2023/01/05 10:05:54;;;;;;;1.35;0.80;;;;;;;13.68;nan;100407.72;6091914;23;20148;-85
2023/01/05 10:08:41;;;;;;;1.00;0.87;;;;;;;13.71;nan;100405.72;6091066;23;20400;-86
2023/01/05 10:14:08;;;;;;;1.42;0.90;;;;;;;13.86;nan;100405.69;6091759;23;20211;-87
2023/01/05 10:16:33;;;;;;;0.70;0.70;;;;;;;14.01;nan;100407.31;6066207;23;20175;-85
2023/01/05 10:19:00;;;;;;;1.13;1.03;;;;;;;14.12;nan;100398.69;6091207;23;20164;-88
2023/01/05 10:21:35;;;;;;;0.98;0.90;;;;;;;14.21;nan;100390.19;6066520;23;20188;-85
2023/01/05 10:24:09;;;;;;;4.93;0.98;;;;;;;14.23;nan;100387.41;6091314;23;20683;-87
2023/01/05 10:26:37;;;;;;;1.20;1.00;;;;;;;14.27;nan;100400.34;6091345;23;20163;-85
2023/01/05 10:29:18;;;;;;;3.38;2.47;;;;;;;14.29;nan;100387.88;6091203;23;20332;-86
2023/01/05 10:31:51;;;;;;;1.20;1.10;;;;;;;14.27;nan;100389.78;6090389;23;20515;-86
2023/01/05 10:34:37;;;;;;;1.33;1.00;;;;;;;14.26;nan;100382.81;6090731;23;20408;-89
2023/01/05 10:37:05;;;;;;;1.30;0.93;;;;;;;14.26;nan;100380.16;6091535;23;20612;-86
2023/01/05 10:39:36;;;;;;;1.25;1.10;;;;;;;14.27;nan;100373.06;6091525;23;20253;-86
2023/01/05 10:42:28;;;;;;;2.90;1.77;;;;;;;14.27;nan;100375.72;6092159;23;20184;-87
2023/01/05 10:44:57;;;;;;;2.55;1.45;;;;;;;14.34;nan;100380.50;6091846;23;20152;-85
2023/01/05 10:47:26;;;;;;;3.22;1.20;;;;;;;14.47;nan;100377.84;6092116;23;20163;-84
2023/01/05 10:49:52;;;;;;;3.85;1.40;;;;;;;14.64;nan;100376.75;6094558;23;20238;-85
2023/01/05 10:52:20;;;;;;;1.87;1.10;;;;;;;14.81;nan;100363.22;6091644;23;20204;-88
2023/01/05 10:54:59;;;;;;;5.97;3.15;;;;;;;14.87;nan;100369.03;6091165;23;20431;-86
2023/01/05 10:57:28;;;;;;;2.90;2.25;;;;;;;14.82;nan;100364.91;6091286;23;20180;-86
2023/01/05 11:00:03;;;;;;;2.58;1.95;;;;;;;14.81;nan;100367.66;6065946;23;20173;-86
2023/01/05 11:02:34;;;;;;;3.25;2.00;;;;;;;14.78;nan;100370.53;6091307;23;20155;-86
2023/01/05 11:05:25;;;;;;;3.95;1.40;;;;;;;14.72;nan;100368.31;6065149;23;20352;-87
2023/01/05 11:07:54;;;;;;;3.53;2.00;;;;;;;14.60;nan;100362.03;6091235;23;20161;-85
2023/01/05 11:10:38;;;;;;;1.75;1.60;;;;;;;14.51;nan;100373.22;6089968;23;20172;-86
2023/01/05 11:13:27;;;;;;;1.85;1.50;;;;;;;14.46;nan;100352.38;6091153;23;20163;-85
2023/01/05 11:15:54;;;;;;;1.50;1.15;;;;;;;14.42;nan;100360.59;6071588;23;20171;-85
2023/01/05 11:18:38;;;;;;;1.48;1.20;;;;;;;14.34;nan;100362.00;6090677;23;20164;-87
2023/01/05 11:21:14;;;;;;;2.28;1.75;;;;;;;14.33;nan;100355.00;6090408;23;20231;-88
2023/01/05 11:23:43;;;;;;;1.30;1.17;;;;;;;14.34;nan;100353.22;6090312;23;20223;-77
2023/01/05 11:26:20;;;;;;;2.20;1.50;;;;;;;14.36;nan;100351.31;6090672;23;20204;-86
2023/01/05 11:29:00;;;;;;;1.38;1.27;;;;;;;14.43;nan;100351.75;6067262;23;20259;-86
2023/01/05 11:31:33;;;;;;;2.53;1.60;;;;;;;14.50;nan;100348.59;6064153;23;20267;-86
2023/01/05 11:34:08;;;;;;;2.38;1.70;;;;;;;14.61;nan;100353.19;6090272;23;20188;-88
2023/01/05 11:36:33;;;;;;;2.45;1.83;;;;;;;14.67;nan;100350.09;6090542;23;20180;-85
2023/01/05 11:38:59;;;;;;;2.00;1.23;;;;;;;14.66;nan;100350.19;6089966;23;20167;-87
2023/01/05 11:41:24;;;;;;;1.60;1.07;;;;;;;14.62;nan;100344.28;6089762;23;20919;-86
2023/01/05 11:43:53;;;;;;;1.17;0.80;;;;;;;14.59;nan;100342.69;6090764;23;20224;-86
2023/01/05 11:46:21;;;;;;;1.20;1.10;;;;;;;14.59;nan;100347.13;6090203;23;20157;-89
2023/01/05 11:48:53;;;;;;;1.33;1.05;;;;;;;14.60;nan;100346.19;6065299;23;20186;-85
2023/01/05 11:51:36;;;;;;;1.10;0.90;;;;;;;14.61;nan;100339.97;6090308;23;20264;-88
2023/01/05 11:54:02;;;;;;;1.10;1.00;;;;;;;14.63;nan;100339.84;6090315;23;20213;-87
2023/01/05 11:56:28;;;;;;;0.97;0.77;;;;;;;14.59;nan;100342.69;6090251;23;20457;-85
2023/01/05 11:58:56;;;;;;;0.97;0.70;;;;;;;14.57;nan;100333.19;6089902;23;20395;-86
2023/01/05 12:01:51;;;;;;;1.20;0.90;;;;;;;14.59;nan;100328.63;6089135;23;20515;-87
2023/01/05 12:04:22;;;;;;;0.90;0.80;;;;;;;14.65;nan;100336.13;6089985;23;20271;-88
2023/01/05 12:07:07;;;;;;;1.20;0.90;;;;;;;14.67;nan;100339.53;6089801;23;20600;-85
2023/01/05 12:09:38;;;;;;;1.55;1.00;;;;;;;14.74;nan;100330.22;6090324;23;20188;-83
2023/01/05 12:12:25;;;;;;;0.80;0.70;;;;;;;14.85;nan;100336.53;6090372;23;20632;-86
2023/01/05 12:15:09;;;;;;;1.23;0.90;;;;;;;14.94;nan;100323.53;6090851;23;20659;-87
2023/01/05 12:18:00;;;;;;;1.10;0.85;;;;;;;14.88;nan;100329.25;6090233;23;20620;-85
2023/01/05 12:20:39;;;;;;;1.00;0.90;;;;;;;14.92;nan;100321.94;6090514;23;20183;-85
2023/01/05 12:23:19;;;;;;;1.00;0.75;;;;;;;14.98;nan;100317.06;6090521;23;20163;-86
2023/01/05 12:26:13;;;;;;;1.00;0.80;;;;;;;15.09;nan;100312.81;6090588;23;20491;-87